sensor_id;sensor_type;location;lat;lon;timestamp;pressure;altitude;pressure_sealevel;temperature;humidity
66479;BME280;53294;47.912;13.526;2023-02-20T00:00:16;97089.56;;;7.67;63.57
66479;BME280;53294;47.912;13.526;2023-02-20T00:02:43;97094.94;;;7.67;63.63
66479;BME280;53294;47.912;13.526;2023-02-20T00:05:12;97098.16;;;7.69;63.61
66479;BME280;53294;47.912;13.526;2023-02-20T00:07:39;97092.22;;;7.62;63.84
66479;BME280;53294;47.912;13.526;2023-02-20T00:10:06;97095.72;;;7.67;63.74
66479;BME280;53294;47.912;13.526;2023-02-20T00:12:33;97086.66;;;7.68;63.75
66479;BME280;53294;47.912;13.526;2023-02-20T00:15:00;97091.00;;;7.75;63.48
66479;BME280;53294;47.912;13.526;2023-02-20T00:17:27;97096.84;;;7.71;63.56
66479;BME280;53294;47.912;13.526;2023-02-20T00:19:54;97098.38;;;7.62;63.74
66479;BME280;53294;47.912;13.526;2023-02-20T00:22:22;97092.22;;;7.62;63.91
66479;BME280;53294;47.912;13.526;2023-02-20T00:24:49;97086.03;;;7.61;63.87
66479;BME280;53294;47.912;13.526;2023-02-20T00:27:17;97086.03;;;7.61;63.93
66479;BME280;53294;47.912;13.526;2023-02-20T00:29:44;97092.50;;;7.65;63.90
66479;BME280;53294;47.912;13.526;2023-02-20T00:32:11;97087.06;;;7.55;63.88
66479;BME280;53294;47.912;13.526;2023-02-20T00:34:38;97087.25;;;7.76;63.58
66479;BME280;53294;47.912;13.526;2023-02-20T00:37:05;97086.69;;;7.73;63.30
66479;BME280;53294;47.912;13.526;2023-02-20T00:39:31;97087.19;;;7.70;63.49
66479;BME280;53294;47.912;13.526;2023-02-20T00:41:58;97081.56;;;7.67;63.45
66479;BME280;53294;47.912;13.526;2023-02-20T00:44:25;97084.53;;;7.70;63.33
66479;BME280;53294;47.912;13.526;2023-02-20T00:46:52;97084.22;;;7.67;63.73
66479;BME280;53294;47.912;13.526;2023-02-20T00:49:19;97082.66;;;7.71;63.62
66479;BME280;53294;47.912;13.526;2023-02-20T00:51:45;97077.97;;;7.56;63.85
66479;BME280;53294;47.912;13.526;2023-02-20T00:54:12;97087.16;;;7.65;63.73
66479;BME280;53294;47.912;13.526;2023-02-20T00:56:39;97085.16;;;7.50;64.23
66479;BME280;53294;47.912;13.526;2023-02-20T00:59:06;97081.53;;;7.62;64.05
66479;BME280;53294;47.912;13.526;2023-02-20T01:01:32;97080.75;;;7.66;63.85
66479;BME280;53294;47.912;13.526;2023-02-20T01:03:59;97084.00;;;7.73;63.54
66479;BME280;53294;47.912;13.526;2023-02-20T01:06:26;97079.25;;;7.81;63.55
66479;BME280;53294;47.912;13.526;2023-02-20T01:08:53;97074.97;;;7.80;63.76
66479;BME280;53294;47.912;13.526;2023-02-20T01:11:20;97078.28;;;7.92;63.51
66479;BME280;53294;47.912;13.526;2023-02-20T01:13:47;97069.94;;;7.83;63.26
66479;BME280;53294;47.912;13.526;2023-02-20T01:16:13;97065.88;;;7.76;63.66
66479;BME280;53294;47.912;13.526;2023-02-20T01:18:40;97071.78;;;7.83;63.63
66479;BME280;53294;47.912;13.526;2023-02-20T01:21:07;97084.00;;;7.73;63.75
66479;BME280;53294;47.912;13.526;2023-02-20T01:23:33;97085.47;;;7.54;64.62
66479;BME280;53294;47.912;13.526;2023-02-20T01:26:00;97088.28;;;7.69;63.94
66479;BME280;53294;47.912;13.526;2023-02-20T01:28:27;97084.53;;;7.70;64.08
66479;BME280;53294;47.912;13.526;2023-02-20T01:30:53;97075.34;;;7.61;63.87
66479;BME280;53294;47.912;13.526;2023-02-20T01:33:20;97073.75;;;7.60;64.36
66479;BME280;53294;47.912;13.526;2023-02-20T01:35:47;97077.97;;;7.56;64.16
66479;BME280;53294;47.912;13.526;2023-02-20T01:38:13;97081.72;;;7.55;64.24
66479;BME280;53294;47.912;13.526;2023-02-20T01:40:46;97073.16;;;7.53;64.43
66479;BME280;53294;47.912;13.526;2023-02-20T01:43:13;97076.91;;;7.52;64.67
66479;BME280;53294;47.912;13.526;2023-02-20T01:45:41;97076.19;;;7.62;64.15
66479;BME280;53294;47.912;13.526;2023-02-20T01:48:22;97084.97;;;7.57;64.23
66479;BME280;53294;47.912;13.526;2023-02-20T01:50:55;97076.47;;;7.65;63.99
66479;BME280;53294;47.912;13.526;2023-02-20T01:53:26;97080.19;;;7.64;64.25
66479;BME280;53294;47.912;13.526;2023-02-20T01:56:02;97071.00;;;7.55;64.14
66479;BME280;53294;47.912;13.526;2023-02-20T01:58:37;97073.16;;;7.53;64.38
66479;BME280;53294;47.912;13.526;2023-02-20T02:01:05;97067.00;;;7.52;64.33
66479;BME280;53294;47.912;13.526;2023-02-20T02:03:34;97068.00;;;7.46;64.23
66479;BME280;53294;47.912;13.526;2023-02-20T02:06:05;97062.88;;;7.40;64.28
66479;BME280;53294;47.912;13.526;2023-02-20T02:08:35;97065.59;;;7.45;64.10
66479;BME280;53294;47.912;13.526;2023-02-20T02:11:08;97068.31;;;7.50;63.80
66479;BME280;53294;47.912;13.526;2023-02-20T02:13:37;97068.88;;;7.52;63.95
66479;BME280;53294;47.912;13.526;2023-02-20T02:18:46;97058.84;;;7.69;63.28
66479;BME280;53294;47.912;13.526;2023-02-20T02:24:31;97066.75;;;7.54;63.67
66479;BME280;53294;47.912;13.526;2023-02-20T02:35:16;97077.03;;;7.40;64.01
66479;BME280;53294;47.912;13.526;2023-02-20T02:40:37;97091.88;;;7.53;63.96
66479;BME280;53294;47.912;13.526;2023-02-20T02:43:18;97089.69;;;7.50;63.97
66479;BME280;53294;47.912;13.526;2023-02-20T02:48:25;97095.00;;;7.45;64.25
66479;BME280;53294;47.912;13.526;2023-02-20T02:50:59;97099.81;;;7.43;64.58
66479;BME280;53294;47.912;13.526;2023-02-20T02:53:28;97107.34;;;7.51;64.40
66479;BME280;53294;47.912;13.526;2023-02-20T02:55:55;97107.34;;;7.51;64.35
66479;BME280;53294;47.912;13.526;2023-02-20T02:58:22;97101.81;;;7.30;65.17
66479;BME280;53294;47.912;13.526;2023-02-20T03:00:56;97101.72;;;7.47;64.78
66479;BME280;53294;47.912;13.526;2023-02-20T03:03:29;97099.28;;;7.46;64.69
66479;BME280;53294;47.912;13.526;2023-02-20T03:06:15;97099.22;;;7.41;64.87
66479;BME280;53294;47.912;13.526;2023-02-20T03:08:47;97093.28;;;7.33;65.37
66479;BME280;53294;47.912;13.526;2023-02-20T03:11:24;97095.25;;;7.43;64.85
66479;BME280;53294;47.912;13.526;2023-02-20T03:14:20;97091.22;;;7.41;65.16
66479;BME280;53294;47.912;13.526;2023-02-20T03:19:54;97087.75;;;7.40;64.81
66479;BME280;53294;47.912;13.526;2023-02-20T03:24:55;97083.84;;;7.53;64.43
66479;BME280;53294;47.912;13.526;2023-02-20T03:27:43;97069.88;;;7.46;64.80
66479;BME280;53294;47.912;13.526;2023-02-20T03:33:06;97077.28;;;7.39;64.61
66479;BME280;53294;47.912;13.526;2023-02-20T03:35:54;97075.16;;;7.41;64.59
66479;BME280;53294;47.912;13.526;2023-02-20T03:38:43;97082.13;;;7.42;64.50
66479;BME280;53294;47.912;13.526;2023-02-20T03:41:32;97089.28;;;7.36;64.93
66479;BME280;53294;47.912;13.526;2023-02-20T03:44:19;97087.31;;;7.26;65.18
66479;BME280;53294;47.912;13.526;2023-02-20T03:46:48;97086.97;;;7.45;64.59
66479;BME280;53294;47.912;13.526;2023-02-20T03:49:20;97089.22;;;7.58;64.12
66479;BME280;53294;47.912;13.526;2023-02-20T03:51:48;97100.34;;;7.45;64.51
66479;BME280;53294;47.912;13.526;2023-02-20T03:54:15;97097.63;;;7.40;64.17
66479;BME280;53294;47.912;13.526;2023-02-20T03:56:49;97088.88;;;7.22;64.81
66479;BME280;53294;47.912;13.526;2023-02-20T03:59:57;97090.50;;;7.23;64.89
66479;BME280;53294;47.912;13.526;2023-02-20T04:02:28;97096.97;;;7.27;64.74
66479;BME280;53294;47.912;13.526;2023-02-20T04:04:59;97093.22;;;7.28;64.79
66479;BME280;53294;47.912;13.526;2023-02-20T04:07:35;97097.53;;;7.29;64.61
66479;BME280;53294;47.912;13.526;2023-02-20T04:10:06;97091.38;;;7.07;65.41
66479;BME280;53294;47.912;13.526;2023-02-20T04:12:38;97095.22;;;7.16;65.19
66479;BME280;53294;47.912;13.526;2023-02-20T04:15:09;97101.16;;;7.18;64.99
66479;BME280;53294;47.912;13.526;2023-02-20T04:17:48;97105.03;;;7.32;64.59
66479;BME280;53294;47.912;13.526;2023-02-20T04:20:16;97115.84;;;7.43;64.19
66479;BME280;53294;47.912;13.526;2023-02-20T04:22:46;97117.91;;;7.35;64.31
66479;BME280;53294;47.912;13.526;2023-02-20T04:25:22;97117.38;;;7.39;64.16
66479;BME280;53294;47.912;13.526;2023-02-20T04:27:53;97110.16;;;7.39;64.08
66479;BME280;53294;47.912;13.526;2023-02-20T04:30:20;97113.31;;;7.31;64.16
66479;BME280;53294;47.912;13.526;2023-02-20T04:32:47;97113.09;;;7.37;64.26
66479;BME280;53294;47.912;13.526;2023-02-20T04:35:18;97111.00;;;7.40;63.64
66479;BME280;53294;47.912;13.526;2023-02-20T04:37:45;97111.44;;;7.31;64.30
66479;BME280;53294;47.912;13.526;2023-02-20T04:40:14;97108.13;;;7.46;63.68
66479;BME280;53294;47.912;13.526;2023-02-20T04:42:41;97100.31;;;7.40;63.77
66479;BME280;53294;47.912;13.526;2023-02-20T04:45:08;97095.63;;;7.30;63.80
66479;BME280;53294;47.912;13.526;2023-02-20T04:47:35;97112.50;;;7.30;64.13
66479;BME280;53294;47.912;13.526;2023-02-20T04:50:03;97108.50;;;7.33;63.73
66479;BME280;53294;47.912;13.526;2023-02-20T04:52:30;97109.75;;;7.25;63.94
66479;BME280;53294;47.912;13.526;2023-02-20T04:54:56;97108.22;;;7.29;64.10
66479;BME280;53294;47.912;13.526;2023-02-20T04:57:23;97106.16;;;7.36;63.89
66479;BME280;53294;47.912;13.526;2023-02-20T04:59:50;97100.31;;;7.40;63.83
66479;BME280;53294;47.912;13.526;2023-02-20T05:02:16;97100.81;;;7.36;63.48
66479;BME280;53294;47.912;13.526;2023-02-20T05:04:43;97098.06;;;7.31;63.86
66479;BME280;53294;47.912;13.526;2023-02-20T05:07:09;97102.41;;;7.37;63.74
66479;BME280;53294;47.912;13.526;2023-02-20T05:09:36;97096.72;;;7.29;63.65
66479;BME280;53294;47.912;13.526;2023-02-20T05:12:03;97098.31;;;7.30;63.71
66479;BME280;53294;47.912;13.526;2023-02-20T05:14:30;97091.50;;;7.17;63.92
66479;BME280;53294;47.912;13.526;2023-02-20T05:16:56;97098.28;;;7.25;63.88
66479;BME280;53294;47.912;13.526;2023-02-20T05:19:23;97087.97;;;7.11;63.87
66479;BME280;53294;47.912;13.526;2023-02-20T05:21:49;97093.38;;;7.16;64.09
66479;BME280;53294;47.912;13.526;2023-02-20T05:24:35;97083.44;;;7.12;63.61
66479;BME280;53294;47.912;13.526;2023-02-20T05:27:02;97093.13;;;7.18;63.72
66479;BME280;53294;47.912;13.526;2023-02-20T05:29:29;97095.44;;;7.09;63.90
66479;BME280;53294;47.912;13.526;2023-02-20T05:31:55;97092.72;;;7.04;64.18
66479;BME280;53294;47.912;13.526;2023-02-20T05:34:22;97092.50;;;7.11;63.51
66479;BME280;53294;47.912;13.526;2023-02-20T05:36:52;97104.00;;;7.11;63.71
66479;BME280;53294;47.912;13.526;2023-02-20T05:39:19;97106.50;;;7.18;63.65
66479;BME280;53294;47.912;13.526;2023-02-20T05:41:46;97108.16;;;7.24;63.61
66479;BME280;53294;47.912;13.526;2023-02-20T05:44:14;97104.88;;;7.17;63.70
66479;BME280;53294;47.912;13.526;2023-02-20T05:46:41;97105.75;;;7.23;63.54
66479;BME280;53294;47.912;13.526;2023-02-20T05:49:09;97104.81;;;7.12;63.81
66479;BME280;53294;47.912;13.526;2023-02-20T05:51:37;97104.56;;;7.13;63.80
66479;BME280;53294;47.912;13.526;2023-02-20T05:54:04;97103.69;;;7.08;63.63
66479;BME280;53294;47.912;13.526;2023-02-20T05:56:31;97102.66;;;7.09;63.82
66479;BME280;53294;47.912;13.526;2023-02-20T05:58:59;97102.66;;;7.09;64.00
66479;BME280;53294;47.912;13.526;2023-02-20T06:01:27;97108.03;;;7.14;63.60
66479;BME280;53294;47.912;13.526;2023-02-20T06:03:55;97115.00;;;7.15;63.50
66479;BME280;53294;47.912;13.526;2023-02-20T06:06:22;97114.00;;;7.21;63.42
66479;BME280;53294;47.912;13.526;2023-02-20T06:08:49;97110.84;;;7.24;63.28
66479;BME280;53294;47.912;13.526;2023-02-20T06:11:16;97117.25;;;7.01;63.86
66479;BME280;53294;47.912;13.526;2023-02-20T06:13:43;97120.03;;;7.11;63.43
66479;BME280;53294;47.912;13.526;2023-02-20T06:16:11;97126.38;;;7.27;63.06
66479;BME280;53294;47.912;13.526;2023-02-20T06:18:42;97129.03;;;7.27;62.80
66479;BME280;53294;47.912;13.526;2023-02-20T06:21:09;97131.03;;;7.15;63.16
66479;BME280;53294;47.912;13.526;2023-02-20T06:23:37;97146.06;;;7.21;63.07
66479;BME280;53294;47.912;13.526;2023-02-20T06:26:05;97145.13;;;7.32;62.58
66479;BME280;53294;47.912;13.526;2023-02-20T06:28:32;97137.72;;;7.40;62.60
66479;BME280;53294;47.912;13.526;2023-02-20T06:30:59;97132.75;;;7.26;62.57
66479;BME280;53294;47.912;13.526;2023-02-20T06:33:27;97152.72;;;7.18;62.94
66479;BME280;53294;47.912;13.526;2023-02-20T06:35:54;97154.00;;;7.16;63.02
66479;BME280;53294;47.912;13.526;2023-02-20T06:38:22;97172.97;;;7.14;63.18
66479;BME280;53294;47.912;13.526;2023-02-20T06:40:49;97169.50;;;7.14;63.60
66479;BME280;53294;47.912;13.526;2023-02-20T06:43:15;97174.63;;;7.21;63.51
66479;BME280;53294;47.912;13.526;2023-02-20T06:45:42;97187.88;;;7.32;63.24
66479;BME280;53294;47.912;13.526;2023-02-20T06:48:09;97179.13;;;7.37;62.94
66479;BME280;53294;47.912;13.526;2023-02-20T06:50:36;97188.00;;;7.43;62.93
66479;BME280;53294;47.912;13.526;2023-02-20T06:53:03;97187.00;;;7.49;62.80
66479;BME280;53294;47.912;13.526;2023-02-20T06:55:29;97182.59;;;7.37;63.20
66479;BME280;53294;47.912;13.526;2023-02-20T06:57:56;97187.44;;;7.41;62.88
66479;BME280;53294;47.912;13.526;2023-02-20T07:00:23;97193.78;;;7.34;63.17
66479;BME280;53294;47.912;13.526;2023-02-20T07:02:50;97187.38;;;7.35;62.98
66479;BME280;53294;47.912;13.526;2023-02-20T07:05:17;97191.97;;;7.40;62.95
66479;BME280;53294;47.912;13.526;2023-02-20T07:07:44;97183.84;;;7.52;62.88
66479;BME280;53294;47.912;13.526;2023-02-20T07:10:11;97186.22;;;7.53;62.70
66479;BME280;53294;47.912;13.526;2023-02-20T07:12:37;97184.63;;;7.52;62.74
66479;BME280;53294;47.912;13.526;2023-02-20T07:15:06;97186.97;;;7.71;62.39
66479;BME280;53294;47.912;13.526;2023-02-20T07:17:33;97180.25;;;7.68;62.28
66479;BME280;53294;47.912;13.526;2023-02-20T07:20:00;97184.47;;;7.64;62.68
66479;BME280;53294;47.912;13.526;2023-02-20T07:22:26;97187.16;;;7.64;62.27
66479;BME280;53294;47.912;13.526;2023-02-20T07:24:53;97191.09;;;7.57;62.56
66479;BME280;53294;47.912;13.526;2023-02-20T07:27:20;97183.63;;;7.59;62.64
66479;BME280;53294;47.912;13.526;2023-02-20T07:29:49;97177.38;;;7.48;62.74
66479;BME280;53294;47.912;13.526;2023-02-20T07:32:16;97166.69;;;7.48;62.71
66479;BME280;53294;47.912;13.526;2023-02-20T07:34:46;97168.34;;;7.54;62.16
66479;BME280;53294;47.912;13.526;2023-02-20T07:37:29;97163.25;;;7.52;62.37
66479;BME280;53294;47.912;13.526;2023-02-20T07:39:56;97165.75;;;7.64;62.30
66479;BME280;53294;47.912;13.526;2023-02-20T07:42:22;97166.09;;;7.68;62.50
66479;BME280;53294;47.912;13.526;2023-02-20T07:44:49;97160.00;;;7.78;61.96
66479;BME280;53294;47.912;13.526;2023-02-20T07:47:16;97158.38;;;7.77;62.19
66479;BME280;53294;47.912;13.526;2023-02-20T07:49:43;97165.31;;;7.72;61.77
66479;BME280;53294;47.912;13.526;2023-02-20T07:52:09;97171.31;;;7.85;61.45
66479;BME280;53294;47.912;13.526;2023-02-20T07:54:36;97175.56;;;7.81;61.62
66479;BME280;53294;47.912;13.526;2023-02-20T07:57:02;97179.78;;;7.77;61.70
66479;BME280;53294;47.912;13.526;2023-02-20T07:59:29;97174.53;;;7.87;61.69
66479;BME280;53294;47.912;13.526;2023-02-20T08:01:56;97182.72;;;8.02;61.00
66479;BME280;53294;47.912;13.526;2023-02-20T08:04:22;97186.56;;;8.17;60.95
66479;BME280;53294;47.912;13.526;2023-02-20T08:06:49;97190.38;;;8.21;60.69
66479;BME280;53294;47.912;13.526;2023-02-20T08:09:16;97182.09;;;8.22;59.99
66479;BME280;53294;47.912;13.526;2023-02-20T08:11:42;97184.91;;;8.11;59.99
66479;BME280;53294;47.912;13.526;2023-02-20T08:14:09;97177.09;;;8.04;60.02
66479;BME280;53294;47.912;13.526;2023-02-20T08:16:36;97167.94;;;7.95;59.76
66479;BME280;53294;47.912;13.526;2023-02-20T08:19:02;97165.75;;;7.91;59.59
66479;BME280;53294;47.912;13.526;2023-02-20T08:21:29;97158.28;;;7.94;59.25
66479;BME280;53294;47.912;13.526;2023-02-20T08:23:56;97164.53;;;8.04;59.39
66479;BME280;53294;47.912;13.526;2023-02-20T08:26:23;97172.03;;;8.07;58.74
66479;BME280;53294;47.912;13.526;2023-02-20T08:28:51;97168.94;;;8.16;58.44
66479;BME280;53294;47.912;13.526;2023-02-20T08:31:18;97165.78;;;8.24;58.98
66479;BME280;53294;47.912;13.526;2023-02-20T08:33:57;97171.44;;;8.33;59.05
66479;BME280;53294;47.912;13.526;2023-02-20T08:36:23;97162.47;;;8.44;58.47
66479;BME280;53294;47.912;13.526;2023-02-20T08:38:50;97159.19;;;8.42;57.98
66479;BME280;53294;47.912;13.526;2023-02-20T08:41:17;97164.81;;;8.40;57.19
66479;BME280;53294;47.912;13.526;2023-02-20T08:43:44;97156.44;;;8.26;57.92
66479;BME280;53294;47.912;13.526;2023-02-20T08:46:11;97156.16;;;8.28;57.42
66479;BME280;53294;47.912;13.526;2023-02-20T08:48:39;97146.53;;;8.32;57.26
66479;BME280;53294;47.912;13.526;2023-02-20T08:51:07;97150.41;;;8.47;56.55
66479;BME280;53294;47.912;13.526;2023-02-20T08:53:37;97145.75;;;8.32;56.19
66479;BME280;53294;47.912;13.526;2023-02-20T08:56:05;97148.19;;;8.38;56.48
66479;BME280;53294;47.912;13.526;2023-02-20T08:58:32;97138.28;;;8.39;56.67
66479;BME280;53294;47.912;13.526;2023-02-20T09:00:58;97133.44;;;8.36;56.34
66479;BME280;53294;47.912;13.526;2023-02-20T09:03:25;97129.97;;;8.35;56.70
66479;BME280;53294;47.912;13.526;2023-02-20T09:05:52;97122.53;;;8.42;56.11
66479;BME280;53294;47.912;13.526;2023-02-20T09:08:19;97128.53;;;8.55;56.20
66479;BME280;53294;47.912;13.526;2023-02-20T09:10:46;97114.63;;;8.58;56.36
66479;BME280;53294;47.912;13.526;2023-02-20T09:13:13;97118.97;;;8.69;55.45
66479;BME280;53294;47.912;13.526;2023-02-20T09:15:39;97109.28;;;8.58;55.25
66479;BME280;53294;47.912;13.526;2023-02-20T09:18:07;97103.41;;;8.61;55.42
66479;BME280;53294;47.912;13.526;2023-02-20T09:20:37;97105.56;;;8.64;54.56
66479;BME280;53294;47.912;13.526;2023-02-20T09:23:04;97101.28;;;8.68;55.14
66479;BME280;53294;47.912;13.526;2023-02-20T09:25:30;97103.72;;;8.75;55.60
66479;BME280;53294;47.912;13.526;2023-02-20T09:27:57;97103.53;;;8.92;55.53
66479;BME280;53294;47.912;13.526;2023-02-20T09:30:24;97106.25;;;9.02;55.07
66479;BME280;53294;47.912;13.526;2023-02-20T09:32:51;97108.41;;;9.05;54.54
66479;BME280;53294;47.912;13.526;2023-02-20T09:35:28;97099.56;;;9.10;54.09
66479;BME280;53294;47.912;13.526;2023-02-20T09:37:56;97104.94;;;9.10;54.27
66479;BME280;53294;47.912;13.526;2023-02-20T09:40:25;97098.22;;;9.07;53.74
66479;BME280;53294;47.912;13.526;2023-02-20T09:45:43;97092.31;;;9.10;54.09
66479;BME280;53294;47.912;13.526;2023-02-20T09:48:30;97098.53;;;9.21;53.86
66479;BME280;53294;47.912;13.526;2023-02-20T09:51:10;97087.28;;;9.24;54.70
66479;BME280;53294;47.912;13.526;2023-02-20T09:53:56;97076.59;;;9.40;53.58
66479;BME280;53294;47.912;13.526;2023-02-20T09:56:27;97086.00;;;9.37;53.11
66479;BME280;53294;47.912;13.526;2023-02-20T10:04:48;97067.50;;;9.61;53.71
66479;BME280;53294;47.912;13.526;2023-02-20T10:07:36;97055.97;;;9.81;53.54
66479;BME280;53294;47.912;13.526;2023-02-20T10:13:00;97057.84;;;9.96;52.26
66479;BME280;53294;47.912;13.526;2023-02-20T10:15:56;97057.59;;;9.82;52.33
66479;BME280;53294;47.912;13.526;2023-02-20T10:23:51;97061.88;;;10.04;51.35
66479;BME280;53294;47.912;13.526;2023-02-20T10:26:34;97056.75;;;10.13;52.21
66479;BME280;53294;47.912;13.526;2023-02-20T10:29:17;97043.09;;;10.04;51.78
66479;BME280;53294;47.912;13.526;2023-02-20T10:31:57;97040.94;;;10.01;51.31
66479;BME280;53294;47.912;13.526;2023-02-20T10:34:33;97031.75;;;10.28;51.85
66479;BME280;53294;47.912;13.526;2023-02-20T10:37:12;97029.59;;;10.30;52.61
66479;BME280;53294;47.912;13.526;2023-02-20T10:39:48;97034.97;;;10.50;51.90
66479;BME280;53294;47.912;13.526;2023-02-20T10:42:23;97033.28;;;10.59;50.56
66479;BME280;53294;47.912;13.526;2023-02-20T10:50:22;97016.34;;;10.69;51.22
66479;BME280;53294;47.912;13.526;2023-02-20T10:52:58;97005.50;;;10.90;50.05
66479;BME280;53294;47.912;13.526;2023-02-20T10:55:39;97008.44;;;10.93;50.11
66479;BME280;53294;47.912;13.526;2023-02-20T10:58:17;97007.31;;;11.05;50.13
66479;BME280;53294;47.912;13.526;2023-02-20T11:00:55;97003.03;;;10.99;50.34
66479;BME280;53294;47.912;13.526;2023-02-20T11:03:39;97002.53;;;10.91;50.43
66479;BME280;53294;47.912;13.526;2023-02-20T11:06:11;96988.91;;;11.22;50.81
66479;BME280;53294;47.912;13.526;2023-02-20T11:08:40;96969.44;;;11.36;50.38
66479;BME280;53294;47.912;13.526;2023-02-20T11:11:23;96960.22;;;11.47;49.43
66479;BME280;53294;47.912;13.526;2023-02-20T11:13:50;96952.72;;;11.73;49.20
66479;BME280;53294;47.912;13.526;2023-02-20T11:16:23;96948.78;;;12.19;49.34
66479;BME280;53294;47.912;13.526;2023-02-20T11:19:19;96927.59;;;12.93;47.08
66479;BME280;53294;47.912;13.526;2023-02-20T11:21:49;96914.78;;;13.04;48.60
66479;BME280;53294;47.912;13.526;2023-02-20T11:24:17;96910.50;;;13.69;45.33
66479;BME280;53294;47.912;13.526;2023-02-20T11:26:47;96908.22;;;13.10;46.34
66479;BME280;53294;47.912;13.526;2023-02-20T11:29:18;96903.53;;;12.97;45.48
66479;BME280;53294;47.912;13.526;2023-02-20T11:31:47;96895.72;;;13.34;47.09
66479;BME280;53294;47.912;13.526;2023-02-20T11:34:20;96887.44;;;13.91;44.41
66479;BME280;53294;47.912;13.526;2023-02-20T11:36:51;96876.03;;;14.22;41.73
66479;BME280;53294;47.912;13.526;2023-02-20T11:39:23;96880.84;;;14.25;44.87
66479;BME280;53294;47.912;13.526;2023-02-20T11:42:28;96882.81;;;14.61;43.80
66479;BME280;53294;47.912;13.526;2023-02-20T11:45:24;96885.34;;;14.29;42.66
66479;BME280;53294;47.912;13.526;2023-02-20T11:48:15;96879.94;;;14.02;42.45
66479;BME280;53294;47.912;13.526;2023-02-20T11:50:44;96870.59;;;13.52;43.92
66479;BME280;53294;47.912;13.526;2023-02-20T11:55:48;96853.13;;;14.55;43.16
66479;BME280;53294;47.912;13.526;2023-02-20T11:58:27;96862.22;;;14.74;41.52
66479;BME280;53294;47.912;13.526;2023-02-20T12:00:54;96854.63;;;13.97;44.69
66479;BME280;53294;47.912;13.526;2023-02-20T12:03:25;96845.50;;;13.52;41.87
66479;BME280;53294;47.912;13.526;2023-02-20T12:05:54;96831.94;;;13.98;43.65
66479;BME280;53294;47.912;13.526;2023-02-20T12:11:07;96821.31;;;15.43;41.96
66479;BME280;53294;47.912;13.526;2023-02-20T12:13:40;96806.34;;;16.52;39.42
66479;BME280;53294;47.912;13.526;2023-02-20T12:19:02;96794.34;;;17.14;35.24
66479;BME280;53294;47.912;13.526;2023-02-20T12:21:48;96792.03;;;17.90;33.03
66479;BME280;53294;47.912;13.526;2023-02-20T12:24:38;96786.50;;;17.69;32.08
66479;BME280;53294;47.912;13.526;2023-02-20T12:32:47;96775.22;;;17.88;32.12
66479;BME280;53294;47.912;13.526;2023-02-20T12:46:21;96751.91;;;18.17;31.36
66479;BME280;53294;47.912;13.526;2023-02-20T12:57:06;96739.13;;;18.93;29.44
66479;BME280;53294;47.912;13.526;2023-02-20T12:59:53;96740.03;;;18.97;28.36
66479;BME280;53294;47.912;13.526;2023-02-20T13:02:34;96735.56;;;18.59;30.20
66479;BME280;53294;47.912;13.526;2023-02-20T13:05:11;96731.88;;;19.09;31.17
66479;BME280;53294;47.912;13.526;2023-02-20T13:07:44;96734.00;;;19.49;29.24
66479;BME280;53294;47.912;13.526;2023-02-20T13:10:16;96717.59;;;19.12;29.76
66479;BME280;53294;47.912;13.526;2023-02-20T13:12:43;96719.19;;;19.01;30.48
66479;BME280;53294;47.912;13.526;2023-02-20T13:15:40;96715.56;;;19.22;29.28
66479;BME280;53294;47.912;13.526;2023-02-20T13:20:49;96701.19;;;18.75;30.54
66479;BME280;53294;47.912;13.526;2023-02-20T13:25:46;96692.56;;;19.19;29.74
66479;BME280;53294;47.912;13.526;2023-02-20T13:33:51;96698.81;;;18.53;30.62
66479;BME280;53294;47.912;13.526;2023-02-20T13:36:41;96701.69;;;18.90;31.65
66479;BME280;53294;47.912;13.526;2023-02-20T13:44:42;96684.03;;;19.70;30.54
66479;BME280;53294;47.912;13.526;2023-02-20T13:49:55;96680.41;;;19.66;30.49
66479;BME280;53294;47.912;13.526;2023-02-20T13:52:40;96671.22;;;19.33;30.08
66479;BME280;53294;47.912;13.526;2023-02-20T13:55:12;96677.59;;;19.25;31.54
66479;BME280;53294;47.912;13.526;2023-02-20T14:02:43;96654.22;;;19.36;30.27
66479;BME280;53294;47.912;13.526;2023-02-20T14:05:20;96650.88;;;18.94;31.64
66479;BME280;53294;47.912;13.526;2023-02-20T14:07:47;96652.25;;;19.00;33.60
66479;BME280;53294;47.912;13.526;2023-02-20T14:12:46;96642.03;;;19.71;30.68
66479;BME280;53294;47.912;13.526;2023-02-20T14:15:18;96634.56;;;19.80;31.01
66479;BME280;53294;47.912;13.526;2023-02-20T14:17:48;96632.88;;;20.04;30.25
66479;BME280;53294;47.912;13.526;2023-02-20T14:20:30;96629.94;;;20.09;28.96
66479;BME280;53294;47.912;13.526;2023-02-20T14:25:40;96617.34;;;20.04;30.08
66479;BME280;53294;47.912;13.526;2023-02-20T14:28:26;96611.34;;;19.99;29.86
66479;BME280;53294;47.912;13.526;2023-02-20T14:31:26;96611.19;;;19.54;30.37
66479;BME280;53294;47.912;13.526;2023-02-20T14:33:57;96613.44;;;19.52;30.26
66479;BME280;53294;47.912;13.526;2023-02-20T14:41:56;96624.59;;;19.23;31.34
66479;BME280;53294;47.912;13.526;2023-02-20T14:44:24;96617.56;;;19.09;31.42
66479;BME280;53294;47.912;13.526;2023-02-20T14:46:54;96625.19;;;18.70;32.06
66479;BME280;53294;47.912;13.526;2023-02-20T14:49:26;96627.44;;;18.56;32.38
66479;BME280;53294;47.912;13.526;2023-02-20T14:54:38;96623.59;;;18.57;32.30
66479;BME280;53294;47.912;13.526;2023-02-20T14:57:05;96618.09;;;18.32;32.82
66479;BME280;53294;47.912;13.526;2023-02-20T14:59:35;96623.03;;;18.30;33.19
66479;BME280;53294;47.912;13.526;2023-02-20T15:02:20;96627.56;;;18.26;33.55
66479;BME280;53294;47.912;13.526;2023-02-20T15:05:03;96631.78;;;18.02;34.28
66479;BME280;53294;47.912;13.526;2023-02-20T15:07:30;96629.09;;;18.15;33.72
66479;BME280;53294;47.912;13.526;2023-02-20T15:09:59;96631.88;;;18.27;33.92
66479;BME280;53294;47.912;13.526;2023-02-20T15:12:39;96629.50;;;17.83;33.57
66479;BME280;53294;47.912;13.526;2023-02-20T15:15:12;96630.16;;;17.59;33.99
66479;BME280;53294;47.912;13.526;2023-02-20T15:17:41;96622.66;;;17.56;34.10